createdAt,value
2023-02-18T00:00:23.602Z,100024.09
2023-02-18T00:02:52.517Z,100017.06
2023-02-18T00:05:19.461Z,100019.13
2023-02-18T00:07:45.909Z,100014.25
2023-02-18T00:10:14.436Z,100014.25
2023-02-18T00:12:41.734Z,100017.66
2023-02-18T00:15:09.568Z,100016.81
2023-02-18T00:17:36.767Z,100029.22
2023-02-18T00:20:05.066Z,100024.25
2023-02-18T00:22:31.538Z,100030.59
2023-02-18T00:24:57.907Z,100026.91
2023-02-18T00:27:24.285Z,100023.25
2023-02-18T00:29:50.793Z,100020.81
2023-02-18T00:32:17.538Z,100013.72
2023-02-18T00:34:44.463Z,100018.13
2023-02-18T00:37:10.816Z,100014.25
2023-02-18T00:39:37.668Z,100005.59
2023-02-18T00:42:04.339Z,100003.34
2023-02-18T00:44:30.705Z,100005.22
2023-02-18T00:46:57.340Z,99987.19
2023-02-18T00:49:23.835Z,99994.75
2023-02-18T00:51:50.483Z,100002.91
2023-02-18T00:54:16.855Z,100004.13
2023-02-18T00:56:43.207Z,99999.84
2023-02-18T00:59:09.593Z,99985.34
2023-02-18T01:01:36.124Z,99981.31
2023-02-18T01:04:02.640Z,99977.66
2023-02-18T01:06:29.138Z,99974.38
2023-02-18T01:08:55.663Z,99961.22
2023-02-18T01:11:23.826Z,99952.94
2023-02-18T01:13:50.182Z,99964.25
2023-02-18T01:16:17.220Z,99975.03
2023-02-18T01:18:44.297Z,99965.25
2023-02-18T01:21:10.698Z,99969.66
2023-02-18T01:23:39.574Z,99965.00
2023-02-18T01:26:07.124Z,99970.38
2023-02-18T01:28:34.218Z,99963.06
2023-02-18T01:31:06.629Z,99967.53
2023-02-18T01:33:33.249Z,99972.94
2023-02-18T01:35:59.620Z,99960.59
2023-02-18T01:38:26.157Z,99951.72
2023-02-18T01:40:53.364Z,99956.69
2023-02-18T01:43:20.527Z,99958.06
2023-02-18T01:45:50.970Z,99952.94
2023-02-18T01:48:19.891Z,99960.38
2023-02-18T01:51:09.056Z,99962.69
2023-02-18T01:53:42.604Z,99969.13
2023-02-18T01:56:19.088Z,99956.09
2023-02-18T01:58:45.620Z,99950.38
2023-02-18T02:03:41.372Z,99955.50
2023-02-18T02:06:16.998Z,99946.72
2023-02-18T02:08:45.726Z,99949.38
2023-02-18T02:11:21.932Z,99949.88
2023-02-18T02:14:09.111Z,99949.88
2023-02-18T02:16:50.114Z,99940.84
2023-02-18T02:19:38.291Z,99940.75
2023-02-18T02:22:23.657Z,99936.47
2023-02-18T02:25:08.658Z,99933.84
2023-02-18T02:28:08.871Z,99931.00
2023-02-18T02:31:12.677Z,99931.41
2023-02-18T02:34:13.281Z,99926.16
2023-02-18T02:37:00.435Z,99925.53
2023-02-18T02:39:42.329Z,99930.41
2023-02-18T02:42:26.773Z,99925.19
2023-02-18T02:45:11.172Z,99924.25
2023-02-18T02:47:49.982Z,99910.69
2023-02-18T02:50:23.382Z,99909.00
2023-02-18T02:53:00.096Z,99906.81
2023-02-18T02:55:26.980Z,99902.44
2023-02-18T02:57:55.818Z,99903.16
2023-02-18T03:00:59.606Z,99905.72
2023-02-18T03:04:00.672Z,99899.75
2023-02-18T03:06:43.401Z,99904.53
2023-02-18T03:09:27.143Z,99898.53
2023-02-18T03:12:12.335Z,99890.72
2023-02-18T03:14:49.694Z,99881.47
2023-02-18T03:17:27.999Z,99883.41
2023-02-18T03:20:26.628Z,99873.44
2023-02-18T03:22:55.995Z,99871.84
2023-02-18T03:25:24.243Z,99868.69
2023-02-18T03:27:58.731Z,99857.59
2023-02-18T03:30:41.005Z,99847.34
2023-02-18T03:33:11.640Z,99838.72
2023-02-18T03:35:38.957Z,99831.53
2023-02-18T03:38:27.060Z,99823.84
2023-02-18T03:40:53.712Z,99835.63
2023-02-18T03:43:20.181Z,99834.56
2023-02-18T03:45:46.754Z,99825.06
2023-02-18T03:48:13.347Z,99823.13
2023-02-18T03:50:39.745Z,99828.47
2023-02-18T03:53:06.473Z,99828.81
2023-02-18T03:55:32.980Z,99816.59
2023-02-18T03:57:59.491Z,99816.19
2023-02-18T04:00:26.236Z,99815.03
2023-02-18T04:02:54.794Z,99826.22
2023-02-18T04:05:21.199Z,99819.53
2023-02-18T04:07:47.968Z,99823.16
2023-02-18T04:10:14.439Z,99823.47
2023-02-18T04:12:40.991Z,99831.75
2023-02-18T04:15:07.764Z,99836.88
2023-02-18T04:17:34.875Z,99834.91
2023-02-18T04:20:01.329Z,99827.13
2023-02-18T04:22:27.849Z,99829.09
2023-02-18T04:24:54.272Z,99820.22
2023-02-18T04:27:20.854Z,99820.22
2023-02-18T04:29:47.456Z,99821.41
2023-02-18T04:32:13.975Z,99818.59
2023-02-18T04:34:40.782Z,99818.94
2023-02-18T04:37:07.313Z,99806.78
2023-02-18T04:39:34.014Z,99802.13
2023-02-18T04:42:00.616Z,99799.34
2023-02-18T04:44:27.576Z,99799.53
2023-02-18T04:46:53.973Z,99789.72
2023-02-18T04:49:20.585Z,99791.31
2023-02-18T04:51:46.985Z,99789.81
2023-02-18T04:54:13.537Z,99788.75
2023-02-18T04:56:39.935Z,99787.50
2023-02-18T04:59:06.566Z,99781.09
2023-02-18T05:01:34.697Z,99786.72
2023-02-18T05:04:01.947Z,99779.78
2023-02-18T05:06:28.407Z,99779.31
2023-02-18T05:08:54.909Z,99780.16
2023-02-18T05:11:21.712Z,99775.28
2023-02-18T05:13:48.218Z,99779.53
2023-02-18T05:16:14.833Z,99774.66
2023-02-18T05:18:41.738Z,99783.53
2023-02-18T05:21:08.309Z,99777.56
2023-02-18T05:23:34.846Z,99769.53
2023-02-18T05:26:01.281Z,99769.66
2023-02-18T05:28:27.884Z,99765.66
2023-02-18T05:30:55.220Z,99769.06
2023-02-18T05:33:21.748Z,99752.16
2023-02-18T05:35:48.855Z,99747.63
2023-02-18T05:38:15.252Z,99746.19
2023-02-18T05:40:41.787Z,99741.53
2023-02-18T05:43:08.490Z,99741.28
2023-02-18T05:45:35.739Z,99732.13
2023-02-18T05:48:02.497Z,99730.69
2023-02-18T05:50:29.580Z,99740.03
2023-02-18T05:52:56.021Z,99740.28
2023-02-18T05:55:23.417Z,99740.28
2023-02-18T05:57:50.258Z,99734.34
2023-02-18T06:00:17.741Z,99727.72
2023-02-18T06:02:44.394Z,99733.25
2023-02-18T06:05:11.191Z,99735.47
2023-02-18T06:07:38.168Z,99718.78
2023-02-18T06:10:05.861Z,99723.03
2023-02-18T06:12:32.337Z,99725.00
2023-02-18T06:14:58.803Z,99725.59
2023-02-18T06:17:25.206Z,99718.84
2023-02-18T06:19:51.770Z,99721.78
2023-02-18T06:22:18.294Z,99718.00
2023-02-18T06:24:44.783Z,99708.66
2023-02-18T06:27:11.348Z,99706.94
2023-02-18T06:29:38.362Z,99701.84
2023-02-18T06:32:05.096Z,99706.44
2023-02-18T06:34:31.834Z,99682.31
2023-02-18T06:37:01.026Z,99684.13
2023-02-18T06:39:29.107Z,99693.75
2023-02-18T06:41:55.502Z,99693.75
2023-02-18T06:44:21.908Z,99694.25
2023-02-18T06:46:48.822Z,99690.28
2023-02-18T06:49:15.259Z,99693.75
2023-02-18T06:51:41.697Z,99692.16
2023-02-18T06:54:08.154Z,99694.59
2023-02-18T06:56:34.921Z,99691.44
2023-02-18T06:59:01.387Z,99694.00
2023-02-18T07:01:28.340Z,99699.25
2023-02-18T07:03:54.790Z,99689.47
2023-02-18T07:06:21.546Z,99699.94
2023-02-18T07:08:48.198Z,99695.19
2023-02-18T07:11:14.886Z,99693.50
2023-02-18T07:13:41.348Z,99686.69
2023-02-18T07:16:08.127Z,99680.81
2023-02-18T07:18:34.891Z,99685.44
2023-02-18T07:21:01.854Z,99691.78
2023-02-18T07:23:28.349Z,99690.63
2023-02-18T07:26:03.752Z,99687.84
2023-02-18T07:28:30.418Z,99684.44
2023-02-18T07:30:58.001Z,99689.56
2023-02-18T07:33:24.849Z,99696.88
2023-02-18T07:35:58.908Z,99692.25
2023-02-18T07:38:26.521Z,99703.09
2023-02-18T07:40:53.913Z,99712.19
2023-02-18T07:43:23.101Z,99712.19
2023-02-18T07:45:49.746Z,99715.84
2023-02-18T07:48:16.765Z,99718.78
2023-02-18T07:50:45.374Z,99710.94
2023-02-18T07:53:15.316Z,99725.59
2023-02-18T07:55:51.095Z,99726.03
2023-02-18T07:58:32.330Z,99720.69
2023-02-18T08:00:59.487Z,99717.28
2023-02-18T08:03:31.203Z,99720.88
2023-02-18T08:05:58.503Z,99717.47
2023-02-18T08:08:27.371Z,99719.16
2023-02-18T08:10:56.245Z,99715.59
2023-02-18T08:13:22.874Z,99694.50
2023-02-18T08:15:49.646Z,99699.03
2023-02-18T08:18:18.845Z,99699.56
2023-02-18T08:20:49.895Z,99721.59
2023-02-18T08:23:19.117Z,99691.97
2023-02-18T08:25:48.751Z,99691.13
2023-02-18T08:28:21.694Z,99699.81
2023-02-18T08:30:50.605Z,99699.56
2023-02-18T08:33:18.513Z,99717.47
2023-02-18T08:35:46.572Z,99716.03
2023-02-18T08:38:13.167Z,99719.13
2023-02-18T08:40:40.972Z,99737.34
2023-02-18T08:43:07.468Z,99722.66
2023-02-18T08:45:36.054Z,99733.84
2023-02-18T08:48:17.011Z,99741.88
2023-02-18T08:50:47.104Z,99747.38
2023-02-18T08:53:16.077Z,99754.81
2023-02-18T08:55:43.091Z,99754.00
2023-02-18T08:58:09.643Z,99757.88
2023-02-18T09:00:37.394Z,99768.03
2023-02-18T09:03:04.214Z,99772.94
2023-02-18T09:05:30.944Z,99784.03
2023-02-18T09:07:57.734Z,99792.50
2023-02-18T09:10:24.765Z,99807.41
2023-02-18T09:12:51.630Z,99823.97
2023-02-18T09:15:18.673Z,99818.19
2023-02-18T09:17:45.130Z,99829.38
2023-02-18T09:20:11.766Z,99836.94
2023-02-18T09:22:38.152Z,99832.81
2023-02-18T09:25:05.402Z,99841.59
2023-02-18T09:27:31.784Z,99840.75
2023-02-18T09:29:58.259Z,99841.56
2023-02-18T09:32:34.410Z,99828.19
2023-02-18T09:35:02.643Z,99823.81
2023-02-18T09:37:29.564Z,99826.50
2023-02-18T09:39:56.155Z,99823.34
2023-02-18T09:42:30.945Z,99814.06
2023-02-18T09:45:01.894Z,99805.19
2023-02-18T09:47:40.657Z,99797.03
2023-02-18T09:50:13.908Z,99793.88
2023-02-18T09:52:40.506Z,99787.03
2023-02-18T09:55:24.103Z,99786.56
2023-02-18T09:57:53.912Z,99786.44
2023-02-18T10:00:32.312Z,99797.28
2023-02-18T10:03:07.154Z,99780.72
2023-02-18T10:05:34.955Z,99767.09
2023-02-18T10:08:05.841Z,99773.03
2023-02-18T10:10:45.279Z,99758.06
2023-02-18T10:13:33.514Z,99751.63
2023-02-18T10:16:00.351Z,99746.34
2023-02-18T10:18:38.680Z,99740.50
2023-02-18T10:21:15.358Z,99732.31
2023-02-18T10:23:51.853Z,99728.31
2023-02-18T10:26:19.504Z,99727.56
2023-02-18T10:28:47.477Z,99714.47
2023-02-18T10:31:20.345Z,99713.22
2023-02-18T10:34:19.479Z,99722.09
2023-02-18T10:36:51.437Z,99722.94
2023-02-18T10:39:42.133Z,99711.75
2023-02-18T10:42:28.494Z,99717.34
2023-02-18T10:45:17.106Z,99707.28
2023-02-18T10:47:54.154Z,99714.03
2023-02-18T10:50:39.742Z,99696.25
2023-02-18T10:53:12.282Z,99701.94
2023-02-18T10:55:42.518Z,99692.41
2023-02-18T10:58:31.245Z,99689.34
2023-02-18T11:00:59.298Z,99705.06
2023-02-18T11:03:49.651Z,99701.63
2023-02-18T11:06:27.599Z,99697.19
2023-02-18T11:08:56.815Z,99703.38
2023-02-18T11:11:29.020Z,99713.09
2023-02-18T11:13:58.306Z,99715.03
2023-02-18T11:16:40.770Z,99706.03
2023-02-18T11:19:35.386Z,99702.38
2023-02-18T11:22:23.780Z,99701.84
2023-02-18T11:25:01.944Z,99712.78
2023-02-18T11:27:38.407Z,99712.31
2023-02-18T11:30:37.899Z,99718.25
2023-02-18T11:33:16.164Z,99720.47
2023-02-18T11:35:51.153Z,99731.19
2023-02-18T11:38:26.240Z,99727.59
2023-02-18T11:41:01.704Z,99731.28
2023-02-18T11:43:31.135Z,99732.16
2023-02-18T11:46:16.693Z,99733.13
2023-02-18T11:48:43.390Z,99728.88
2023-02-18T11:51:24.594Z,99726.16
2023-02-18T11:54:18.166Z,99723.81
2023-02-18T11:57:05.242Z,99729.69
2023-02-18T11:59:37.655Z,99735.66
2023-02-18T12:02:10.467Z,99729.06
2023-02-18T12:04:48.610Z,99725.97
2023-02-18T12:07:25.040Z,99725.91
2023-02-18T12:09:56.169Z,99720.00
2023-02-18T12:12:33.413Z,99740.25
2023-02-18T12:15:00.601Z,99742.38
2023-02-18T12:17:33.301Z,99729.56
2023-02-18T12:20:18.897Z,99719.94
2023-02-18T12:22:50.817Z,99723.13
2023-02-18T12:25:58.587Z,99720.59
2023-02-18T12:28:37.259Z,99724.09
2023-02-18T12:31:22.823Z,99733.25
2023-02-18T12:34:10.235Z,99728.41
2023-02-18T12:36:55.307Z,99733.75
2023-02-18T12:39:33.472Z,99734.41
2023-02-18T12:42:35.671Z,99739.03
2023-02-18T12:45:07.948Z,99735.13
2023-02-18T12:48:05.230Z,99732.78
2023-02-18T12:50:50.668Z,99735.81
2023-02-18T12:53:46.872Z,99732.56
2023-02-18T12:56:36.996Z,99740.91
2023-02-18T12:59:22.077Z,99739.22
2023-02-18T13:02:05.206Z,99738.09
2023-02-18T13:04:38.365Z,99731.19
2023-02-18T13:07:26.205Z,99744.56
2023-02-18T13:10:18.910Z,99736.06
2023-02-18T13:13:16.665Z,99737.25
2023-02-18T13:15:55.798Z,99737.84
2023-02-18T13:18:36.569Z,99740.50
2023-02-18T13:21:30.953Z,99736.56
2023-02-18T13:24:02.461Z,99734.59
2023-02-18T13:26:34.514Z,99748.66
2023-02-18T13:29:10.128Z,99739.38
2023-02-18T13:31:51.541Z,99741.34
2023-02-18T13:34:40.459Z,99739.03
2023-02-18T13:37:13.605Z,99739.16
2023-02-18T13:39:50.170Z,99732.94
2023-02-18T13:42:16.551Z,99735.25
2023-02-18T13:44:55.792Z,99738.44
2023-02-18T13:47:43.758Z,99736.06
2023-02-18T13:50:22.521Z,99744.09
2023-02-18T13:52:50.064Z,99738.91
2023-02-18T13:55:23.846Z,99740.03
2023-02-18T13:57:55.141Z,99732.78
2023-02-18T14:00:25.637Z,99737.31
2023-02-18T14:02:58.791Z,99744.91
2023-02-18T14:05:39.928Z,99744.22
2023-02-18T14:08:16.011Z,99732.13
2023-02-18T14:10:42.655Z,99728.81
2023-02-18T14:13:18.487Z,99742.13
2023-02-18T14:15:57.853Z,99739.44
2023-02-18T14:18:32.495Z,99733.50
2023-02-18T14:21:41.975Z,99726.56
2023-02-18T14:24:11.491Z,99737.69
2023-02-18T14:26:43.554Z,99726.84
2023-02-18T14:29:27.770Z,99737.81
2023-02-18T14:32:00.300Z,99723.06
2023-02-18T14:34:39.783Z,99731.00
2023-02-18T14:37:12.116Z,99731.28
2023-02-18T14:39:54.383Z,99718.59
2023-02-18T14:42:39.580Z,99723.81
2023-02-18T14:45:19.355Z,99725.25
2023-02-18T14:48:11.543Z,99715.91
2023-02-18T14:50:44.417Z,99729.56
2023-02-18T14:53:18.587Z,99726.97
2023-02-18T14:55:55.277Z,99727.34
2023-02-18T14:58:27.961Z,99717.53
2023-02-18T15:00:54.606Z,99721.31
2023-02-18T15:03:22.554Z,99728.50
2023-02-18T15:05:53.314Z,99724.81
2023-02-18T15:08:26.761Z,99731.66
2023-02-18T15:11:08.336Z,99725.28
2023-02-18T15:13:45.455Z,99726.91
2023-02-18T15:16:31.761Z,99730.66
2023-02-18T15:19:15.140Z,99729.34
2023-02-18T15:21:44.584Z,99736.06
2023-02-18T15:24:26.905Z,99729.94
2023-02-18T15:26:57.224Z,99728.50
2023-02-18T15:29:27.453Z,99728.25
2023-02-18T15:31:58.082Z,99734.69
2023-02-18T15:34:37.877Z,99727.97
2023-02-18T15:37:13.794Z,99725.09
2023-02-18T15:39:41.819Z,99721.44
2023-02-18T15:42:30.107Z,99718.41
2023-02-18T15:45:04.875Z,99727.44
2023-02-18T15:47:32.907Z,99718.03
2023-02-18T15:50:02.876Z,99720.97
2023-02-18T15:52:37.761Z,99722.41
2023-02-18T15:55:11.847Z,99722.00
2023-02-18T15:57:40.223Z,99723.38
2023-02-18T16:00:13.848Z,99721.19
2023-02-18T16:02:55.643Z,99719.22
2023-02-18T16:05:26.544Z,99715.09
2023-02-18T16:07:58.208Z,99710.53
2023-02-18T16:10:40.759Z,99711.88
2023-02-18T16:13:07.190Z,99714.72
2023-02-18T16:15:40.564Z,99711.03
2023-02-18T16:18:07.591Z,99712.06
2023-02-18T16:20:37.627Z,99716.84
2023-02-18T16:23:11.391Z,99723.50
2023-02-18T16:25:48.671Z,99718.88
2023-02-18T16:28:35.574Z,99716.31
2023-02-18T16:31:02.010Z,99723.16
2023-02-18T16:33:28.626Z,99712.44
2023-02-18T16:35:57.608Z,99717.44
2023-02-18T16:38:25.327Z,99710.47
2023-02-18T16:40:54.298Z,99720.25
2023-02-18T16:43:23.436Z,99713.50
2023-02-18T16:45:56.324Z,99710.78
2023-02-18T16:48:44.099Z,99726.06
2023-02-18T16:51:26.111Z,99718.41
2023-02-18T16:53:52.609Z,99716.25
2023-02-18T16:56:23.148Z,99720.50
2023-02-18T16:58:50.875Z,99715.22
2023-02-18T17:01:28.649Z,99716.59
2023-02-18T17:03:56.661Z,99720.25
2023-02-18T17:06:23.240Z,99721.38
2023-02-18T17:08:49.987Z,99716.59
2023-02-18T17:11:23.742Z,99727.31
2023-02-18T17:13:50.590Z,99735.38
2023-02-18T17:16:17.833Z,99725.25
2023-02-18T17:18:44.776Z,99726.72
2023-02-18T17:21:16.259Z,99733.38
2023-02-18T17:23:43.114Z,99743.09
2023-02-18T17:26:21.276Z,99734.81
2023-02-18T17:28:47.800Z,99735.47
2023-02-18T17:31:21.646Z,99733.75
2023-02-18T17:33:48.303Z,99740.59
2023-02-18T17:36:15.204Z,99730.97
2023-02-18T17:38:41.863Z,99730.13
2023-02-18T17:41:08.335Z,99735.97
2023-02-18T17:43:35.252Z,99738.03
2023-02-18T17:46:02.000Z,99728.94
2023-02-18T17:48:29.632Z,99740.72
2023-02-18T17:50:56.694Z,99737.16
2023-02-18T17:53:23.610Z,99737.28
2023-02-18T17:55:51.061Z,99736.31
2023-02-18T17:58:18.139Z,99740.59
2023-02-18T18:00:55.821Z,99740.50
2023-02-18T18:03:23.078Z,99727.09
2023-02-18T18:05:56.454Z,99732.22
2023-02-18T18:08:23.589Z,99725.63
2023-02-18T18:10:55.309Z,99713.09
2023-02-18T18:13:32.282Z,99723.81
2023-02-18T18:15:59.075Z,99715.91
2023-02-18T18:18:27.273Z,99728.00
2023-02-18T18:20:58.388Z,99728.47
2023-02-18T18:23:24.853Z,99724.91
2023-02-18T18:25:56.402Z,99719.69
2023-02-18T18:28:23.813Z,99725.19
2023-02-18T18:30:52.759Z,99718.13
2023-02-18T18:33:34.015Z,99726.88
2023-02-18T18:36:01.431Z,99734.78
2023-02-18T18:38:29.256Z,99730.75
2023-02-18T18:40:56.130Z,99724.66
2023-02-18T18:43:33.104Z,99731.97
2023-02-18T18:46:00.208Z,99737.28
2023-02-18T18:48:27.323Z,99732.44
2023-02-18T18:50:53.915Z,99728.16
2023-02-18T18:53:22.513Z,99731.72
2023-02-18T18:55:50.704Z,99735.50
2023-02-18T18:58:21.019Z,99735.84
2023-02-18T19:00:50.839Z,99731.44
2023-02-18T19:03:18.230Z,99727.56
2023-02-18T19:05:46.380Z,99719.53
2023-02-18T19:08:15.275Z,99712.22
2023-02-18T19:10:43.868Z,99713.69
2023-02-18T19:13:17.681Z,99713.69
2023-02-18T19:15:44.953Z,99713.09
2023-02-18T19:18:14.212Z,99704.06
2023-02-18T19:20:42.995Z,99703.00
2023-02-18T19:23:10.178Z,99688.19
2023-02-18T19:25:37.801Z,99684.53
2023-02-18T19:28:04.942Z,99694.91
2023-02-18T19:30:35.636Z,99687.00
2023-02-18T19:33:05.719Z,99688.78
2023-02-18T19:35:33.239Z,99694.31
2023-02-18T19:38:00.401Z,99688.69
2023-02-18T19:40:29.858Z,99690.28
2023-02-18T19:42:57.084Z,99689.19
2023-02-18T19:45:24.453Z,99698.72
2023-02-18T19:47:56.094Z,99693.69
2023-02-18T19:50:23.562Z,99700.66
2023-02-18T19:52:54.482Z,99704.66
2023-02-18T19:55:21.965Z,99698.91
2023-02-18T19:57:49.579Z,99695.28
2023-02-18T20:00:18.160Z,99695.75
2023-02-18T20:02:45.791Z,99698.31
2023-02-18T20:05:13.273Z,99701.59
2023-02-18T20:07:41.748Z,99708.66
2023-02-18T20:10:12.354Z,99691.94
2023-02-18T20:12:39.084Z,99702.28
2023-02-18T20:15:05.886Z,99707.66
2023-02-18T20:17:32.968Z,99700.34
2023-02-18T20:19:59.908Z,99698.53
2023-02-18T20:22:26.512Z,99696.69
2023-02-18T20:24:53.490Z,99694.72
2023-02-18T20:27:19.934Z,99696.69
2023-02-18T20:29:47.889Z,99691.91
2023-02-18T20:32:17.070Z,99694.81
2023-02-18T20:34:45.022Z,99685.19
2023-02-18T20:37:11.666Z,99694.72
2023-02-18T20:39:38.059Z,99687.28
2023-02-18T20:42:15.476Z,99686.09
2023-02-18T20:44:43.577Z,99693.78
2023-02-18T20:47:10.247Z,99694.03
2023-02-18T20:49:37.432Z,99692.81
2023-02-18T20:52:04.099Z,99690.16
2023-02-18T20:54:31.038Z,99689.91
2023-02-18T20:56:57.516Z,99684.78
2023-02-18T20:59:25.938Z,99683.16
2023-02-18T21:01:52.460Z,99678.44
2023-02-18T21:04:19.869Z,99670.41
2023-02-18T21:06:47.217Z,99669.09
2023-02-18T21:09:15.530Z,99666.53
2023-02-18T21:11:42.881Z,99661.06
2023-02-18T21:14:09.427Z,99662.28
2023-02-18T21:16:39.405Z,99663.63
2023-02-18T21:19:08.242Z,99659.50
2023-02-18T21:21:35.989Z,99668.28
2023-02-18T21:24:02.821Z,99665.09
2023-02-18T21:26:30.057Z,99669.63
2023-02-18T21:29:00.742Z,99665.59
2023-02-18T21:31:30.525Z,99662.66
2023-02-18T21:33:57.439Z,99658.69
2023-02-18T21:36:24.498Z,99647.69
2023-02-18T21:38:53.031Z,99659.41
2023-02-18T21:41:20.028Z,99644.28
2023-02-18T21:43:47.706Z,99640.53
2023-02-18T21:46:25.760Z,99640.78
2023-02-18T21:49:09.281Z,99642.63
2023-02-18T21:52:01.859Z,99636.91
2023-02-18T21:54:34.021Z,99634.47
2023-02-18T21:57:03.729Z,99643.81
2023-02-18T21:59:32.108Z,99649.53
2023-02-18T22:02:00.761Z,99647.97
2023-02-18T22:04:31.909Z,99643.94
2023-02-18T22:06:58.754Z,99644.16
2023-02-18T22:09:25.645Z,99646.00
2023-02-18T22:11:52.291Z,99642.22
2023-02-18T22:14:18.810Z,99644.03
2023-02-18T22:16:45.749Z,99644.63
2023-02-18T22:19:15.517Z,99650.00
2023-02-18T22:21:47.762Z,99647.06
2023-02-18T22:24:15.806Z,99643.94
2023-02-18T22:26:43.933Z,99641.63
2023-02-18T22:29:12.962Z,99640.78
2023-02-18T22:31:39.910Z,99638.34
2023-02-18T22:34:06.510Z,99632.75
2023-02-18T22:36:33.848Z,99639.97
2023-02-18T22:39:00.535Z,99635.19
2023-02-18T22:41:29.809Z,99642.25
2023-02-18T22:43:58.156Z,99631.31
2023-02-18T22:46:25.283Z,99638.53
2023-02-18T22:48:52.396Z,99639.13
2023-02-18T22:51:24.858Z,99632.28
2023-02-18T22:53:53.456Z,99643.75
2023-02-18T22:56:20.963Z,99634.47
2023-02-18T22:58:49.861Z,99637.16
2023-02-18T23:01:23.944Z,99635.91
2023-02-18T23:03:52.387Z,99632.53
2023-02-18T23:06:20.256Z,99631.09
2023-02-18T23:08:48.041Z,99620.38
2023-02-18T23:11:19.817Z,99626.56
2023-02-18T23:14:05.663Z,99615.16
2023-02-18T23:16:32.753Z,99608.94
2023-02-18T23:18:59.437Z,99598.84
2023-02-18T23:21:25.814Z,99593.84
2023-02-18T23:23:54.880Z,99583.88
2023-02-18T23:26:24.859Z,99582.38
2023-02-18T23:28:52.653Z,99587.00
2023-02-18T23:31:25.170Z,99590.34
2023-02-18T23:33:57.529Z,99585.56
2023-02-18T23:36:29.638Z,99603.31
2023-02-18T23:38:58.816Z,99609.16
2023-02-18T23:41:26.653Z,99610.84
2023-02-18T23:43:53.591Z,99617.47
2023-02-18T23:46:24.606Z,99604.78
2023-02-18T23:48:54.198Z,99611.63
2023-02-18T23:51:23.234Z,99612.34
2023-02-18T23:53:50.627Z,99617.06
2023-02-18T23:56:27.633Z,99609.03
2023-02-18T23:58:57.307Z,99603.91
